sensor_id;sensor_type;location;lat;lon;timestamp;temperature;humidity
3051;DHT22;1535;51.098;6.414;2023-03-16T00:02:01;2.70;99.90
3051;DHT22;1535;51.098;6.414;2023-03-16T00:04:28;2.80;99.90
3051;DHT22;1535;51.098;6.414;2023-03-16T00:06:55;2.80;99.90
3051;DHT22;1535;51.098;6.414;2023-03-16T00:09:22;2.80;99.90
3051;DHT22;1535;51.098;6.414;2023-03-16T00:11:56;2.80;99.90
3051;DHT22;1535;51.098;6.414;2023-03-16T00:14:24;2.80;99.90
3051;DHT22;1535;51.098;6.414;2023-03-16T00:16:51;2.80;99.90
3051;DHT22;1535;51.098;6.414;2023-03-16T00:19:17;2.90;99.90
3051;DHT22;1535;51.098;6.414;2023-03-16T00:21:47;2.90;99.90
3051;DHT22;1535;51.098;6.414;2023-03-16T00:24:14;2.90;99.90
3051;DHT22;1535;51.098;6.414;2023-03-16T00:26:43;2.90;99.90
3051;DHT22;1535;51.098;6.414;2023-03-16T00:29:12;3.00;99.90
3051;DHT22;1535;51.098;6.414;2023-03-16T00:31:40;3.00;99.90
3051;DHT22;1535;51.098;6.414;2023-03-16T00:34:08;3.00;99.90
3051;DHT22;1535;51.098;6.414;2023-03-16T00:36:35;3.00;99.90
3051;DHT22;1535;51.098;6.414;2023-03-16T00:39:02;3.00;99.90
3051;DHT22;1535;51.098;6.414;2023-03-16T00:41:30;3.00;99.90
3051;DHT22;1535;51.098;6.414;2023-03-16T00:43:57;3.00;99.90
3051;DHT22;1535;51.098;6.414;2023-03-16T00:46:25;3.00;99.90
3051;DHT22;1535;51.098;6.414;2023-03-16T00:48:52;3.10;99.90
3051;DHT22;1535;51.098;6.414;2023-03-16T00:51:19;3.10;99.90
3051;DHT22;1535;51.098;6.414;2023-03-16T00:53:47;3.10;99.90
3051;DHT22;1535;51.098;6.414;2023-03-16T00:56:15;3.10;99.90
3051;DHT22;1535;51.098;6.414;2023-03-16T00:58:43;3.10;99.90
3051;DHT22;1535;51.098;6.414;2023-03-16T01:01:12;3.10;99.90
3051;DHT22;1535;51.098;6.414;2023-03-16T01:03:41;3.10;99.90
3051;DHT22;1535;51.098;6.414;2023-03-16T01:06:10;3.20;99.90
3051;DHT22;1535;51.098;6.414;2023-03-16T01:08:39;3.10;99.90
3051;DHT22;1535;51.098;6.414;2023-03-16T01:11:08;3.20;99.90
3051;DHT22;1535;51.098;6.414;2023-03-16T01:13:35;3.20;99.90
3051;DHT22;1535;51.098;6.414;2023-03-16T01:16:02;3.20;99.90
3051;DHT22;1535;51.098;6.414;2023-03-16T01:18:29;3.20;99.90
3051;DHT22;1535;51.098;6.414;2023-03-16T01:21:00;3.20;99.90
3051;DHT22;1535;51.098;6.414;2023-03-16T01:23:27;3.20;99.90
3051;DHT22;1535;51.098;6.414;2023-03-16T01:25:56;3.20;99.90
3051;DHT22;1535;51.098;6.414;2023-03-16T01:28:25;3.10;99.90
3051;DHT22;1535;51.098;6.414;2023-03-16T01:31:00;3.10;99.90
3051;DHT22;1535;51.098;6.414;2023-03-16T01:33:28;3.20;99.90
3051;DHT22;1535;51.098;6.414;2023-03-16T01:35:57;3.20;99.90
3051;DHT22;1535;51.098;6.414;2023-03-16T01:38:27;3.20;99.90
3051;DHT22;1535;51.098;6.414;2023-03-16T01:40:54;3.10;99.90
3051;DHT22;1535;51.098;6.414;2023-03-16T01:43:24;3.20;99.90
3051;DHT22;1535;51.098;6.414;2023-03-16T01:46:20;3.10;99.90
3051;DHT22;1535;51.098;6.414;2023-03-16T01:49:06;3.10;99.90
3051;DHT22;1535;51.098;6.414;2023-03-16T01:51:36;3.20;99.90
3051;DHT22;1535;51.098;6.414;2023-03-16T01:56:58;3.10;99.90
3051;DHT22;1535;51.098;6.414;2023-03-16T01:59:30;3.10;99.90
3051;DHT22;1535;51.098;6.414;2023-03-16T02:01:57;3.10;99.90
3051;DHT22;1535;51.098;6.414;2023-03-16T02:04:46;3.10;99.90
3051;DHT22;1535;51.098;6.414;2023-03-16T02:07:15;3.10;99.90
3051;DHT22;1535;51.098;6.414;2023-03-16T02:09:47;3.10;99.90
3051;DHT22;1535;51.098;6.414;2023-03-16T02:12:17;3.10;99.90
3051;DHT22;1535;51.098;6.414;2023-03-16T02:14:45;3.20;99.90
3051;DHT22;1535;51.098;6.414;2023-03-16T02:17:14;3.20;99.90
3051;DHT22;1535;51.098;6.414;2023-03-16T02:19:48;3.20;99.90
3051;DHT22;1535;51.098;6.414;2023-03-16T02:22:19;3.20;99.90
3051;DHT22;1535;51.098;6.414;2023-03-16T02:24:51;3.20;99.90
3051;DHT22;1535;51.098;6.414;2023-03-16T02:27:23;3.20;99.90
3051;DHT22;1535;51.098;6.414;2023-03-16T02:29:58;3.20;99.90
3051;DHT22;1535;51.098;6.414;2023-03-16T02:32:28;3.20;99.90
3051;DHT22;1535;51.098;6.414;2023-03-16T02:34:56;3.20;99.90
3051;DHT22;1535;51.098;6.414;2023-03-16T02:37:25;3.20;99.90
3051;DHT22;1535;51.098;6.414;2023-03-16T02:39:51;3.20;99.90
3051;DHT22;1535;51.098;6.414;2023-03-16T02:42:20;3.20;99.90
3051;DHT22;1535;51.098;6.414;2023-03-16T02:44:52;3.30;99.90
3051;DHT22;1535;51.098;6.414;2023-03-16T02:47:28;3.30;99.90
3051;DHT22;1535;51.098;6.414;2023-03-16T02:49:56;3.30;99.90
3051;DHT22;1535;51.098;6.414;2023-03-16T02:52:23;3.30;99.90
3051;DHT22;1535;51.098;6.414;2023-03-16T02:54:50;3.40;99.90
3051;DHT22;1535;51.098;6.414;2023-03-16T02:57:16;3.40;99.90
3051;DHT22;1535;51.098;6.414;2023-03-16T02:59:43;3.40;99.90
3051;DHT22;1535;51.098;6.414;2023-03-16T03:02:10;3.40;99.90
3051;DHT22;1535;51.098;6.414;2023-03-16T03:04:38;3.40;99.90
3051;DHT22;1535;51.098;6.414;2023-03-16T03:07:07;3.40;99.90
3051;DHT22;1535;51.098;6.414;2023-03-16T03:09:33;3.40;99.90
3051;DHT22;1535;51.098;6.414;2023-03-16T03:12:01;3.40;99.90
3051;DHT22;1535;51.098;6.414;2023-03-16T03:14:29;3.40;99.90
3051;DHT22;1535;51.098;6.414;2023-03-16T03:16:55;3.40;99.90
3051;DHT22;1535;51.098;6.414;2023-03-16T03:19:22;3.40;99.90
3051;DHT22;1535;51.098;6.414;2023-03-16T03:21:51;3.50;99.90
3051;DHT22;1535;51.098;6.414;2023-03-16T03:24:22;3.50;99.90
3051;DHT22;1535;51.098;6.414;2023-03-16T03:26:48;3.50;99.90
3051;DHT22;1535;51.098;6.414;2023-03-16T03:29:16;3.50;99.90
3051;DHT22;1535;51.098;6.414;2023-03-16T03:31:43;3.50;99.90
3051;DHT22;1535;51.098;6.414;2023-03-16T03:34:10;3.50;99.90
3051;DHT22;1535;51.098;6.414;2023-03-16T03:36:37;3.40;99.90
3051;DHT22;1535;51.098;6.414;2023-03-16T03:39:06;3.40;99.90
3051;DHT22;1535;51.098;6.414;2023-03-16T03:41:33;3.40;99.90
3051;DHT22;1535;51.098;6.414;2023-03-16T03:44:00;3.50;99.90
3051;DHT22;1535;51.098;6.414;2023-03-16T03:46:27;3.50;99.90
3051;DHT22;1535;51.098;6.414;2023-03-16T03:48:54;3.50;99.90
3051;DHT22;1535;51.098;6.414;2023-03-16T03:51:25;3.50;99.90
3051;DHT22;1535;51.098;6.414;2023-03-16T03:53:52;3.50;99.90
3051;DHT22;1535;51.098;6.414;2023-03-16T03:56:21;3.50;99.90
3051;DHT22;1535;51.098;6.414;2023-03-16T03:58:48;3.40;99.90
3051;DHT22;1535;51.098;6.414;2023-03-16T04:01:15;3.50;99.90
3051;DHT22;1535;51.098;6.414;2023-03-16T04:03:42;3.50;99.90
3051;DHT22;1535;51.098;6.414;2023-03-16T04:06:09;3.50;99.90
3051;DHT22;1535;51.098;6.414;2023-03-16T04:08:36;3.50;99.90
3051;DHT22;1535;51.098;6.414;2023-03-16T04:11:03;3.50;99.90
3051;DHT22;1535;51.098;6.414;2023-03-16T04:13:31;3.50;99.90
3051;DHT22;1535;51.098;6.414;2023-03-16T04:15:58;3.50;99.90
3051;DHT22;1535;51.098;6.414;2023-03-16T04:18:27;3.50;99.90
3051;DHT22;1535;51.098;6.414;2023-03-16T04:20:54;3.50;99.90
3051;DHT22;1535;51.098;6.414;2023-03-16T04:23:21;3.50;99.90
3051;DHT22;1535;51.098;6.414;2023-03-16T04:25:49;3.50;99.90
3051;DHT22;1535;51.098;6.414;2023-03-16T04:28:16;3.50;99.90
3051;DHT22;1535;51.098;6.414;2023-03-16T04:30:44;3.50;99.90
3051;DHT22;1535;51.098;6.414;2023-03-16T04:33:11;3.60;99.90
3051;DHT22;1535;51.098;6.414;2023-03-16T04:35:39;3.70;99.90
3051;DHT22;1535;51.098;6.414;2023-03-16T04:38:06;3.70;99.90
3051;DHT22;1535;51.098;6.414;2023-03-16T04:40:35;3.70;99.90
3051;DHT22;1535;51.098;6.414;2023-03-16T04:43:01;3.80;99.90
3051;DHT22;1535;51.098;6.414;2023-03-16T04:45:28;3.80;99.90
3051;DHT22;1535;51.098;6.414;2023-03-16T04:47:57;3.80;99.90
3051;DHT22;1535;51.098;6.414;2023-03-16T04:50:23;3.80;99.90
3051;DHT22;1535;51.098;6.414;2023-03-16T04:52:51;3.80;99.90
3051;DHT22;1535;51.098;6.414;2023-03-16T04:55:18;3.90;99.90
3051;DHT22;1535;51.098;6.414;2023-03-16T04:57:45;3.80;99.90
3051;DHT22;1535;51.098;6.414;2023-03-16T05:00:13;3.80;99.90
3051;DHT22;1535;51.098;6.414;2023-03-16T05:02:44;3.80;99.90
3051;DHT22;1535;51.098;6.414;2023-03-16T05:05:12;3.70;99.90
3051;DHT22;1535;51.098;6.414;2023-03-16T05:07:39;3.80;99.90
3051;DHT22;1535;51.098;6.414;2023-03-16T05:10:08;3.80;99.90
3051;DHT22;1535;51.098;6.414;2023-03-16T05:12:34;3.70;99.90
3051;DHT22;1535;51.098;6.414;2023-03-16T05:15:01;3.70;99.90
3051;DHT22;1535;51.098;6.414;2023-03-16T05:17:28;3.70;99.90
3051;DHT22;1535;51.098;6.414;2023-03-16T05:19:55;3.70;99.90
3051;DHT22;1535;51.098;6.414;2023-03-16T05:22:24;3.80;99.90
3051;DHT22;1535;51.098;6.414;2023-03-16T05:24:51;3.80;99.90
3051;DHT22;1535;51.098;6.414;2023-03-16T05:27:18;3.80;99.90
3051;DHT22;1535;51.098;6.414;2023-03-16T05:29:45;3.80;99.90
3051;DHT22;1535;51.098;6.414;2023-03-16T05:32:12;3.80;99.90
3051;DHT22;1535;51.098;6.414;2023-03-16T05:34:42;3.80;99.90
3051;DHT22;1535;51.098;6.414;2023-03-16T05:37:09;3.80;99.90
3051;DHT22;1535;51.098;6.414;2023-03-16T05:39:37;3.80;99.90
3051;DHT22;1535;51.098;6.414;2023-03-16T05:42:04;3.80;99.90
3051;DHT22;1535;51.098;6.414;2023-03-16T05:44:31;3.80;99.90
3051;DHT22;1535;51.098;6.414;2023-03-16T05:46:58;3.80;99.90
3051;DHT22;1535;51.098;6.414;2023-03-16T05:49:25;3.80;99.90
3051;DHT22;1535;51.098;6.414;2023-03-16T05:51:51;3.80;99.90
3051;DHT22;1535;51.098;6.414;2023-03-16T05:54:19;3.80;99.90
3051;DHT22;1535;51.098;6.414;2023-03-16T05:56:47;3.80;99.90
3051;DHT22;1535;51.098;6.414;2023-03-16T05:59:14;3.80;99.90
3051;DHT22;1535;51.098;6.414;2023-03-16T06:01:42;3.80;99.90
3051;DHT22;1535;51.098;6.414;2023-03-16T06:04:09;3.80;99.90
3051;DHT22;1535;51.098;6.414;2023-03-16T06:06:36;3.90;99.90
3051;DHT22;1535;51.098;6.414;2023-03-16T06:09:03;3.90;99.90
3051;DHT22;1535;51.098;6.414;2023-03-16T06:11:30;3.80;99.90
3051;DHT22;1535;51.098;6.414;2023-03-16T06:13:59;3.90;99.90
3051;DHT22;1535;51.098;6.414;2023-03-16T06:16:26;4.00;99.90
3051;DHT22;1535;51.098;6.414;2023-03-16T06:18:53;4.00;99.90
3051;DHT22;1535;51.098;6.414;2023-03-16T06:21:20;4.00;99.90
3051;DHT22;1535;51.098;6.414;2023-03-16T06:23:47;4.00;99.90
3051;DHT22;1535;51.098;6.414;2023-03-16T06:26:14;4.00;99.90
3051;DHT22;1535;51.098;6.414;2023-03-16T06:28:41;4.00;99.90
3051;DHT22;1535;51.098;6.414;2023-03-16T06:31:09;4.10;99.90
3051;DHT22;1535;51.098;6.414;2023-03-16T06:33:36;4.10;99.90
3051;DHT22;1535;51.098;6.414;2023-03-16T06:36:03;4.10;99.90
3051;DHT22;1535;51.098;6.414;2023-03-16T06:38:31;4.10;99.90
3051;DHT22;1535;51.098;6.414;2023-03-16T06:40:58;4.20;99.90
3051;DHT22;1535;51.098;6.414;2023-03-16T06:43:26;4.20;99.90
3051;DHT22;1535;51.098;6.414;2023-03-16T06:45:53;4.20;99.90
3051;DHT22;1535;51.098;6.414;2023-03-16T06:48:22;4.20;99.90
3051;DHT22;1535;51.098;6.414;2023-03-16T06:50:48;4.20;99.90
3051;DHT22;1535;51.098;6.414;2023-03-16T06:53:15;4.30;99.90
3051;DHT22;1535;51.098;6.414;2023-03-16T06:55:42;4.50;99.90
3051;DHT22;1535;51.098;6.414;2023-03-16T06:58:09;4.40;99.90
3051;DHT22;1535;51.098;6.414;2023-03-16T07:00:36;4.50;99.90
3051;DHT22;1535;51.098;6.414;2023-03-16T07:03:03;4.60;99.90
3051;DHT22;1535;51.098;6.414;2023-03-16T07:05:31;4.60;99.90
3051;DHT22;1535;51.098;6.414;2023-03-16T07:07:58;4.70;99.90
3051;DHT22;1535;51.098;6.414;2023-03-16T07:10:25;4.80;99.90
3051;DHT22;1535;51.098;6.414;2023-03-16T07:12:52;4.90;99.90
3051;DHT22;1535;51.098;6.414;2023-03-16T07:15:19;5.00;99.90
3051;DHT22;1535;51.098;6.414;2023-03-16T07:17:47;5.10;99.90
3051;DHT22;1535;51.098;6.414;2023-03-16T07:20:14;5.10;99.90
3051;DHT22;1535;51.098;6.414;2023-03-16T07:22:42;5.20;99.90
3051;DHT22;1535;51.098;6.414;2023-03-16T07:25:09;5.30;99.90
3051;DHT22;1535;51.098;6.414;2023-03-16T07:27:38;5.30;99.90
3051;DHT22;1535;51.098;6.414;2023-03-16T07:30:06;5.40;99.90
3051;DHT22;1535;51.098;6.414;2023-03-16T07:32:36;5.50;99.90
3051;DHT22;1535;51.098;6.414;2023-03-16T07:35:03;5.40;99.90
3051;DHT22;1535;51.098;6.414;2023-03-16T07:37:30;5.50;99.90
3051;DHT22;1535;51.098;6.414;2023-03-16T07:40:00;5.70;99.90
3051;DHT22;1535;51.098;6.414;2023-03-16T07:42:28;5.80;99.90
3051;DHT22;1535;51.098;6.414;2023-03-16T07:44:55;5.70;99.90
3051;DHT22;1535;51.098;6.414;2023-03-16T07:47:22;5.70;99.90
3051;DHT22;1535;51.098;6.414;2023-03-16T07:49:50;5.70;99.90
3051;DHT22;1535;51.098;6.414;2023-03-16T07:52:17;5.90;99.90
3051;DHT22;1535;51.098;6.414;2023-03-16T07:54:44;6.00;99.90
3051;DHT22;1535;51.098;6.414;2023-03-16T07:57:12;6.00;99.90
3051;DHT22;1535;51.098;6.414;2023-03-16T07:59:39;6.00;99.90
3051;DHT22;1535;51.098;6.414;2023-03-16T08:02:10;6.00;99.90
3051;DHT22;1535;51.098;6.414;2023-03-16T08:04:37;6.00;99.90
3051;DHT22;1535;51.098;6.414;2023-03-16T08:07:07;6.10;99.90
3051;DHT22;1535;51.098;6.414;2023-03-16T08:09:33;6.20;99.90
3051;DHT22;1535;51.098;6.414;2023-03-16T08:12:01;6.20;99.90
3051;DHT22;1535;51.098;6.414;2023-03-16T08:14:30;6.20;99.90
3051;DHT22;1535;51.098;6.414;2023-03-16T08:16:58;6.30;99.90
3051;DHT22;1535;51.098;6.414;2023-03-16T08:19:26;6.20;99.90
3051;DHT22;1535;51.098;6.414;2023-03-16T08:21:53;6.30;99.90
3051;DHT22;1535;51.098;6.414;2023-03-16T08:24:20;6.20;99.90
3051;DHT22;1535;51.098;6.414;2023-03-16T08:26:47;6.30;99.90
3051;DHT22;1535;51.098;6.414;2023-03-16T08:29:14;6.20;99.90
3051;DHT22;1535;51.098;6.414;2023-03-16T08:31:42;6.20;99.90
3051;DHT22;1535;51.098;6.414;2023-03-16T08:34:09;6.30;99.90
3051;DHT22;1535;51.098;6.414;2023-03-16T08:36:37;6.40;99.90
3051;DHT22;1535;51.098;6.414;2023-03-16T08:39:04;6.50;99.90
3051;DHT22;1535;51.098;6.414;2023-03-16T08:41:31;6.50;99.90
3051;DHT22;1535;51.098;6.414;2023-03-16T08:43:59;6.60;99.90
3051;DHT22;1535;51.098;6.414;2023-03-16T08:46:26;6.70;99.90
3051;DHT22;1535;51.098;6.414;2023-03-16T08:48:54;6.80;99.90
3051;DHT22;1535;51.098;6.414;2023-03-16T08:51:21;6.90;99.90
3051;DHT22;1535;51.098;6.414;2023-03-16T08:53:49;7.00;99.90
3051;DHT22;1535;51.098;6.414;2023-03-16T08:56:16;7.10;99.90
3051;DHT22;1535;51.098;6.414;2023-03-16T08:58:43;7.00;99.90
3051;DHT22;1535;51.098;6.414;2023-03-16T09:01:11;7.10;99.90
3051;DHT22;1535;51.098;6.414;2023-03-16T09:03:39;7.10;99.90
3051;DHT22;1535;51.098;6.414;2023-03-16T09:06:09;7.10;99.90
3051;DHT22;1535;51.098;6.414;2023-03-16T09:08:38;7.10;99.90
3051;DHT22;1535;51.098;6.414;2023-03-16T09:11:07;7.20;99.90
3051;DHT22;1535;51.098;6.414;2023-03-16T09:13:34;7.30;99.90
3051;DHT22;1535;51.098;6.414;2023-03-16T09:16:03;7.50;99.90
3051;DHT22;1535;51.098;6.414;2023-03-16T09:18:30;7.60;99.90
3051;DHT22;1535;51.098;6.414;2023-03-16T09:20:57;7.70;99.90
3051;DHT22;1535;51.098;6.414;2023-03-16T09:23:27;7.90;99.90
3051;DHT22;1535;51.098;6.414;2023-03-16T09:25:56;8.00;99.90
3051;DHT22;1535;51.098;6.414;2023-03-16T09:28:23;8.10;99.90
3051;DHT22;1535;51.098;6.414;2023-03-16T09:30:52;8.30;99.90
3051;DHT22;1535;51.098;6.414;2023-03-16T09:33:20;8.30;99.90
3051;DHT22;1535;51.098;6.414;2023-03-16T09:35:47;8.30;99.90
3051;DHT22;1535;51.098;6.414;2023-03-16T09:38:15;8.50;99.90
3051;DHT22;1535;51.098;6.414;2023-03-16T09:40:45;8.60;99.90
3051;DHT22;1535;51.098;6.414;2023-03-16T09:43:20;8.40;99.90
3051;DHT22;1535;51.098;6.414;2023-03-16T09:45:57;8.60;99.90
3051;DHT22;1535;51.098;6.414;2023-03-16T09:48:28;8.60;99.90
3051;DHT22;1535;51.098;6.414;2023-03-16T09:50:57;8.60;99.90
3051;DHT22;1535;51.098;6.414;2023-03-16T09:53:27;8.80;99.90
3051;DHT22;1535;51.098;6.414;2023-03-16T09:55:59;8.80;99.90
3051;DHT22;1535;51.098;6.414;2023-03-16T09:58:27;8.80;99.90
3051;DHT22;1535;51.098;6.414;2023-03-16T10:01:03;9.20;99.90
3051;DHT22;1535;51.098;6.414;2023-03-16T10:03:47;9.40;99.90
3051;DHT22;1535;51.098;6.414;2023-03-16T10:06:15;9.80;99.90
3051;DHT22;1535;51.098;6.414;2023-03-16T10:08:44;10.10;99.90
3051;DHT22;1535;51.098;6.414;2023-03-16T10:11:21;10.10;99.90
3051;DHT22;1535;51.098;6.414;2023-03-16T10:13:51;10.20;99.90
3051;DHT22;1535;51.098;6.414;2023-03-16T10:16:24;10.20;99.90
3051;DHT22;1535;51.098;6.414;2023-03-16T10:18:57;10.20;99.90
3051;DHT22;1535;51.098;6.414;2023-03-16T10:21:29;10.20;99.90
3051;DHT22;1535;51.098;6.414;2023-03-16T10:23:58;10.20;99.90
3051;DHT22;1535;51.098;6.414;2023-03-16T10:26:35;10.30;99.90
3051;DHT22;1535;51.098;6.414;2023-03-16T10:29:10;10.30;99.90
3051;DHT22;1535;51.098;6.414;2023-03-16T10:31:40;10.30;99.90
3051;DHT22;1535;51.098;6.414;2023-03-16T10:34:08;10.40;99.90
3051;DHT22;1535;51.098;6.414;2023-03-16T10:36:38;10.40;99.90
3051;DHT22;1535;51.098;6.414;2023-03-16T10:39:07;10.50;99.90
3051;DHT22;1535;51.098;6.414;2023-03-16T10:41:37;10.30;99.90
3051;DHT22;1535;51.098;6.414;2023-03-16T10:44:09;10.40;99.90
3051;DHT22;1535;51.098;6.414;2023-03-16T10:46:39;11.00;99.90
3051;DHT22;1535;51.098;6.414;2023-03-16T10:49:19;11.20;99.90
3051;DHT22;1535;51.098;6.414;2023-03-16T10:51:47;11.90;99.90
3051;DHT22;1535;51.098;6.414;2023-03-16T10:54:16;12.20;99.90
3051;DHT22;1535;51.098;6.414;2023-03-16T10:56:45;12.20;99.90
3051;DHT22;1535;51.098;6.414;2023-03-16T10:59:25;12.40;99.90
3051;DHT22;1535;51.098;6.414;2023-03-16T11:01:53;12.50;99.90
3051;DHT22;1535;51.098;6.414;2023-03-16T11:04:19;12.60;99.90
3051;DHT22;1535;51.098;6.414;2023-03-16T11:06:50;12.70;99.90
3051;DHT22;1535;51.098;6.414;2023-03-16T11:09:21;12.40;99.90
3051;DHT22;1535;51.098;6.414;2023-03-16T11:11:51;12.70;99.90
3051;DHT22;1535;51.098;6.414;2023-03-16T11:14:21;12.80;99.90
3051;DHT22;1535;51.098;6.414;2023-03-16T11:16:52;13.20;99.90
3051;DHT22;1535;51.098;6.414;2023-03-16T11:19:26;13.40;99.90
3051;DHT22;1535;51.098;6.414;2023-03-16T11:21:58;13.80;99.90
3051;DHT22;1535;51.098;6.414;2023-03-16T11:24:31;14.20;99.90
3051;DHT22;1535;51.098;6.414;2023-03-16T11:27:03;14.70;99.90
3051;DHT22;1535;51.098;6.414;2023-03-16T11:29:42;14.90;99.90
3051;DHT22;1535;51.098;6.414;2023-03-16T11:32:16;15.10;99.90
3051;DHT22;1535;51.098;6.414;2023-03-16T11:34:45;14.90;99.90
3051;DHT22;1535;51.098;6.414;2023-03-16T11:37:22;15.00;99.90
3051;DHT22;1535;51.098;6.414;2023-03-16T11:39:59;14.90;99.90
3051;DHT22;1535;51.098;6.414;2023-03-16T11:42:37;14.90;99.90
3051;DHT22;1535;51.098;6.414;2023-03-16T11:45:17;15.40;99.90
3051;DHT22;1535;51.098;6.414;2023-03-16T11:48:03;15.60;99.90
3051;DHT22;1535;51.098;6.414;2023-03-16T11:50:39;16.00;99.90
3051;DHT22;1535;51.098;6.414;2023-03-16T11:53:15;16.50;98.40
3051;DHT22;1535;51.098;6.414;2023-03-16T11:55:50;16.20;97.80
3051;DHT22;1535;51.098;6.414;2023-03-16T11:58:29;15.90;96.60
3051;DHT22;1535;51.098;6.414;2023-03-16T12:01:06;15.60;96.70
3051;DHT22;1535;51.098;6.414;2023-03-16T12:04:04;15.30;96.60
3051;DHT22;1535;51.098;6.414;2023-03-16T12:06:46;15.00;97.90
3051;DHT22;1535;51.098;6.414;2023-03-16T12:12:27;15.10;97.30
3051;DHT22;1535;51.098;6.414;2023-03-16T12:15:14;15.10;96.60
3051;DHT22;1535;51.098;6.414;2023-03-16T12:17:48;14.70;97.30
3051;DHT22;1535;51.098;6.414;2023-03-16T12:20:21;15.10;98.00
3051;DHT22;1535;51.098;6.414;2023-03-16T12:22:53;15.10;97.60
3051;DHT22;1535;51.098;6.414;2023-03-16T12:25:31;15.20;97.40
3051;DHT22;1535;51.098;6.414;2023-03-16T12:28:02;15.30;96.70
3051;DHT22;1535;51.098;6.414;2023-03-16T12:30:39;15.40;96.90
3051;DHT22;1535;51.098;6.414;2023-03-16T12:33:16;15.50;97.00
3051;DHT22;1535;51.098;6.414;2023-03-16T12:35:48;15.80;97.00
3051;DHT22;1535;51.098;6.414;2023-03-16T12:38:24;15.90;96.50
3051;DHT22;1535;51.098;6.414;2023-03-16T12:41:09;16.00;95.20
3051;DHT22;1535;51.098;6.414;2023-03-16T12:43:48;15.90;95.50
3051;DHT22;1535;51.098;6.414;2023-03-16T12:46:25;15.60;94.60
3051;DHT22;1535;51.098;6.414;2023-03-16T12:48:57;15.40;94.00
3051;DHT22;1535;51.098;6.414;2023-03-16T12:51:34;15.00;95.40
3051;DHT22;1535;51.098;6.414;2023-03-16T12:54:03;14.90;95.00
3051;DHT22;1535;51.098;6.414;2023-03-16T12:56:33;14.90;95.20
3051;DHT22;1535;51.098;6.414;2023-03-16T12:59:04;15.00;94.20
3051;DHT22;1535;51.098;6.414;2023-03-16T13:01:41;15.00;94.40
3051;DHT22;1535;51.098;6.414;2023-03-16T13:04:12;14.60;94.60
3051;DHT22;1535;51.098;6.414;2023-03-16T13:06:42;14.60;95.00
3051;DHT22;1535;51.098;6.414;2023-03-16T13:09:16;15.00;95.30
3051;DHT22;1535;51.098;6.414;2023-03-16T13:11:46;15.20;95.40
3051;DHT22;1535;51.098;6.414;2023-03-16T13:14:29;15.50;94.50
3051;DHT22;1535;51.098;6.414;2023-03-16T13:17:05;15.80;94.30
3051;DHT22;1535;51.098;6.414;2023-03-16T13:19:32;16.10;92.50
3051;DHT22;1535;51.098;6.414;2023-03-16T13:22:05;16.30;92.80
3051;DHT22;1535;51.098;6.414;2023-03-16T13:24:52;16.60;92.40
3051;DHT22;1535;51.098;6.414;2023-03-16T13:27:25;16.90;90.60
3051;DHT22;1535;51.098;6.414;2023-03-16T13:29:56;17.00;90.00
3051;DHT22;1535;51.098;6.414;2023-03-16T13:32:26;17.40;90.70
3051;DHT22;1535;51.098;6.414;2023-03-16T13:34:57;17.70;90.60
3051;DHT22;1535;51.098;6.414;2023-03-16T13:37:27;17.60;90.10
3051;DHT22;1535;51.098;6.414;2023-03-16T13:39:56;17.80;87.10
3051;DHT22;1535;51.098;6.414;2023-03-16T13:42:25;18.00;89.10
3051;DHT22;1535;51.098;6.414;2023-03-16T13:44:53;18.30;84.20
3051;DHT22;1535;51.098;6.414;2023-03-16T13:47:21;18.20;82.40
3051;DHT22;1535;51.098;6.414;2023-03-16T13:49:54;18.20;80.70
3051;DHT22;1535;51.098;6.414;2023-03-16T13:52:25;18.00;82.40
3051;DHT22;1535;51.098;6.414;2023-03-16T13:54:52;18.20;81.30
3051;DHT22;1535;51.098;6.414;2023-03-16T13:57:22;18.10;81.20
3051;DHT22;1535;51.098;6.414;2023-03-16T13:59:49;17.70;80.40
3051;DHT22;1535;51.098;6.414;2023-03-16T14:02:23;17.60;82.80
3051;DHT22;1535;51.098;6.414;2023-03-16T14:04:49;17.20;80.70
3051;DHT22;1535;51.098;6.414;2023-03-16T14:07:20;17.00;82.80
3051;DHT22;1535;51.098;6.414;2023-03-16T14:09:49;17.30;84.90
3051;DHT22;1535;51.098;6.414;2023-03-16T14:12:18;17.80;82.90
3051;DHT22;1535;51.098;6.414;2023-03-16T14:14:47;17.50;78.50
3051;DHT22;1535;51.098;6.414;2023-03-16T14:17:17;17.80;80.90
3051;DHT22;1535;51.098;6.414;2023-03-16T14:19:46;17.90;78.80
3051;DHT22;1535;51.098;6.414;2023-03-16T14:22:16;18.10;79.40
3051;DHT22;1535;51.098;6.414;2023-03-16T14:24:46;17.80;77.40
3051;DHT22;1535;51.098;6.414;2023-03-16T14:27:21;17.80;78.60
3051;DHT22;1535;51.098;6.414;2023-03-16T14:29:56;17.60;79.80
3051;DHT22;1535;51.098;6.414;2023-03-16T14:32:26;17.60;79.20
3051;DHT22;1535;51.098;6.414;2023-03-16T14:35:03;17.60;80.20
3051;DHT22;1535;51.098;6.414;2023-03-16T14:37:37;17.90;78.40
3051;DHT22;1535;51.098;6.414;2023-03-16T14:40:19;18.10;79.30
3051;DHT22;1535;51.098;6.414;2023-03-16T14:42:46;18.40;79.40
3051;DHT22;1535;51.098;6.414;2023-03-16T14:45:14;18.40;77.30
3051;DHT22;1535;51.098;6.414;2023-03-16T14:47:44;18.40;77.50
3051;DHT22;1535;51.098;6.414;2023-03-16T14:50:15;18.00;76.90
3051;DHT22;1535;51.098;6.414;2023-03-16T14:52:43;17.90;76.50
3051;DHT22;1535;51.098;6.414;2023-03-16T14:55:15;18.20;77.90
3051;DHT22;1535;51.098;6.414;2023-03-16T14:57:43;18.40;75.20
3051;DHT22;1535;51.098;6.414;2023-03-16T15:00:12;18.10;76.90
3051;DHT22;1535;51.098;6.414;2023-03-16T15:02:41;18.00;75.40
3051;DHT22;1535;51.098;6.414;2023-03-16T15:05:09;17.80;75.50
3051;DHT22;1535;51.098;6.414;2023-03-16T15:07:41;17.70;76.20
3051;DHT22;1535;51.098;6.414;2023-03-16T15:10:19;17.40;76.90
3051;DHT22;1535;51.098;6.414;2023-03-16T15:12:47;17.50;78.50
3051;DHT22;1535;51.098;6.414;2023-03-16T15:15:20;17.70;77.90
3051;DHT22;1535;51.098;6.414;2023-03-16T15:17:48;17.80;77.60
3051;DHT22;1535;51.098;6.414;2023-03-16T15:20:17;17.80;77.20
3051;DHT22;1535;51.098;6.414;2023-03-16T15:22:47;17.80;76.30
3051;DHT22;1535;51.098;6.414;2023-03-16T15:25:24;17.90;76.80
3051;DHT22;1535;51.098;6.414;2023-03-16T15:27:53;17.60;76.00
3051;DHT22;1535;51.098;6.414;2023-03-16T15:30:23;17.50;77.40
3051;DHT22;1535;51.098;6.414;2023-03-16T15:32:50;17.50;77.00
3051;DHT22;1535;51.098;6.414;2023-03-16T15:35:17;17.80;78.70
3051;DHT22;1535;51.098;6.414;2023-03-16T15:37:44;17.70;78.00
3051;DHT22;1535;51.098;6.414;2023-03-16T15:40:17;17.40;79.10
3051;DHT22;1535;51.098;6.414;2023-03-16T15:42:46;16.90;80.20
3051;DHT22;1535;51.098;6.414;2023-03-16T15:45:15;17.10;81.70
3051;DHT22;1535;51.098;6.414;2023-03-16T15:47:43;16.80;80.40
3051;DHT22;1535;51.098;6.414;2023-03-16T15:50:12;16.60;80.70
3051;DHT22;1535;51.098;6.414;2023-03-16T15:52:42;16.40;81.80
3051;DHT22;1535;51.098;6.414;2023-03-16T15:55:16;16.20;82.30
3051;DHT22;1535;51.098;6.414;2023-03-16T15:57:43;15.90;84.00
3051;DHT22;1535;51.098;6.414;2023-03-16T16:00:25;15.50;84.80
3051;DHT22;1535;51.098;6.414;2023-03-16T16:02:54;15.20;85.70
3051;DHT22;1535;51.098;6.414;2023-03-16T16:05:21;15.00;86.80
3051;DHT22;1535;51.098;6.414;2023-03-16T16:07:48;15.00;87.90
3051;DHT22;1535;51.098;6.414;2023-03-16T16:10:16;14.80;88.10
3051;DHT22;1535;51.098;6.414;2023-03-16T16:12:43;14.70;89.80
3051;DHT22;1535;51.098;6.414;2023-03-16T16:15:20;14.40;90.00
3051;DHT22;1535;51.098;6.414;2023-03-16T16:17:48;14.40;90.20
3051;DHT22;1535;51.098;6.414;2023-03-16T16:20:18;14.30;90.70
3051;DHT22;1535;51.098;6.414;2023-03-16T16:22:46;14.30;90.60
3051;DHT22;1535;51.098;6.414;2023-03-16T16:25:13;14.20;91.30
3051;DHT22;1535;51.098;6.414;2023-03-16T16:27:40;14.10;91.20
3051;DHT22;1535;51.098;6.414;2023-03-16T16:30:16;14.10;91.90
3051;DHT22;1535;51.098;6.414;2023-03-16T16:32:45;14.10;92.20
3051;DHT22;1535;51.098;6.414;2023-03-16T16:35:15;14.00;92.60